createdAt,value
2018-05-25T00:00:02.579Z,11.265408
2018-05-25T00:00:15.024Z,1.609344
2018-05-25T00:00:27.534Z,9.656064
2018-05-25T00:00:39.951Z,9.656064
2018-05-25T00:00:52.359Z,9.656064
2018-05-25T00:01:04.770Z,6.437376
2018-05-25T00:01:17.210Z,8.04672
2018-05-25T00:01:29.627Z,11.265408
2018-05-25T00:01:42.024Z,12.874752
2018-05-25T00:01:54.571Z,12.874752
2018-05-25T00:02:06.984Z,9.656064
2018-05-25T00:02:19.390Z,9.656064
2018-05-25T00:02:31.806Z,11.265408
2018-05-25T00:02:44.201Z,11.265408
2018-05-25T00:02:56.599Z,11.265408
2018-05-25T00:03:09.024Z,8.04672
2018-05-25T00:03:21.431Z,12.874752
2018-05-25T00:03:33.848Z,12.874752
2018-05-25T00:03:46.254Z,12.874752
2018-05-25T00:03:58.668Z,12.874752
2018-05-25T00:04:11.073Z,12.874752
2018-05-25T00:04:23.476Z,14.484096
2018-05-25T00:04:35.911Z,14.484096
2018-05-25T00:04:48.322Z,14.484096
2018-05-25T00:05:00.734Z,14.484096
2018-05-25T00:05:13.335Z,12.874752
2018-05-25T00:05:25.736Z,12.874752
2018-05-25T00:05:38.185Z,12.874752
2018-05-25T00:05:50.615Z,12.874752
2018-05-25T00:06:03.069Z,12.874752
2018-05-25T00:06:15.495Z,6.437376
2018-05-25T00:06:27.900Z,6.437376
2018-05-25T00:06:40.307Z,6.437376
2018-05-25T00:06:52.706Z,6.437376
2018-05-25T00:07:05.152Z,6.437376
2018-05-25T00:07:17.562Z,8.04672
2018-05-25T00:07:29.988Z,9.656064
2018-05-25T00:07:42.414Z,11.265408
2018-05-25T00:07:54.823Z,11.265408
2018-05-25T00:08:07.233Z,8.04672
2018-05-25T00:08:19.658Z,9.656064
2018-05-25T00:08:32.066Z,9.656064
2018-05-25T00:08:44.472Z,9.656064
2018-05-25T00:08:56.879Z,9.656064
2018-05-25T00:09:09.282Z,9.656064
2018-05-25T00:09:21.685Z,9.656064
2018-05-25T00:09:34.124Z,9.656064
2018-05-25T00:09:46.522Z,9.656064
2018-05-25T00:09:58.953Z,9.656064
2018-05-25T00:10:11.406Z,9.656064
2018-05-25T00:10:23.796Z,9.656064
2018-05-25T00:10:36.214Z,17.702784
2018-05-25T00:10:48.647Z,17.702784
2018-05-25T00:11:01.064Z,17.702784
2018-05-25T00:11:13.472Z,8.04672
2018-05-25T00:11:25.872Z,8.04672
2018-05-25T00:11:38.280Z,8.04672
2018-05-25T00:11:50.697Z,11.265408
2018-05-25T00:12:03.102Z,11.265408
2018-05-25T00:12:15.506Z,14.484096
2018-05-25T00:12:27.922Z,14.484096
2018-05-25T00:12:40.325Z,14.484096
2018-05-25T00:12:52.737Z,14.484096
2018-05-25T00:13:05.143Z,8.04672
2018-05-25T00:13:17.534Z,12.874752
2018-05-25T00:13:29.943Z,16.09344
2018-05-25T00:13:42.368Z,16.09344
2018-05-25T00:13:54.780Z,16.09344
2018-05-25T00:14:07.219Z,8.04672
2018-05-25T00:14:19.630Z,8.04672
2018-05-25T00:14:32.033Z,9.656064
2018-05-25T00:14:44.443Z,12.874752
2018-05-25T00:14:56.849Z,12.874752
2018-05-25T00:15:09.341Z,9.656064
2018-05-25T00:15:21.757Z,16.09344
2018-05-25T00:15:34.174Z,16.09344
2018-05-25T00:15:46.580Z,16.09344
2018-05-25T00:15:58.981Z,16.09344
2018-05-25T00:16:11.375Z,8.04672
2018-05-25T00:16:23.786Z,8.04672
2018-05-25T00:16:36.183Z,8.04672
2018-05-25T00:16:48.582Z,8.04672
2018-05-25T00:17:00.994Z,9.656064
2018-05-25T00:17:13.420Z,8.04672
2018-05-25T00:17:25.828Z,8.04672
2018-05-25T00:17:38.239Z,9.656064
2018-05-25T00:17:50.834Z,9.656064
2018-05-25T00:18:03.743Z,11.265408
2018-05-25T00:18:16.402Z,9.656064
2018-05-25T00:18:28.828Z,9.656064
2018-05-25T00:18:41.273Z,9.656064
2018-05-25T00:18:53.685Z,12.874752
2018-05-25T00:19:06.109Z,8.04672
2018-05-25T00:19:18.517Z,8.04672
2018-05-25T00:19:30.924Z,9.656064
2018-05-25T00:19:43.325Z,9.656064
2018-05-25T00:19:55.729Z,9.656064
2018-05-25T00:20:08.128Z,8.04672
2018-05-25T00:20:20.542Z,11.265408
2018-05-25T00:20:32.967Z,11.265408
2018-05-25T00:20:45.371Z,11.265408
2018-05-25T00:20:57.768Z,11.265408
2018-05-25T00:21:10.190Z,1.609344
2018-05-25T00:21:22.597Z,3.218688
2018-05-25T00:21:35.004Z,3.218688
2018-05-25T00:21:47.403Z,3.218688
2018-05-25T00:21:59.802Z,19.312128
2018-05-25T00:22:12.215Z,9.656064
2018-05-25T00:22:24.630Z,12.874752
2018-05-25T00:22:37.039Z,12.874752
2018-05-25T00:22:49.610Z,12.874752
2018-05-25T00:23:02.020Z,12.874752
2018-05-25T00:23:14.483Z,6.437376
2018-05-25T00:23:26.876Z,6.437376
2018-05-25T00:23:39.289Z,6.437376
2018-05-25T00:23:51.691Z,11.265408
2018-05-25T00:24:04.092Z,11.265408
2018-05-25T00:24:16.521Z,11.265408
2018-05-25T00:24:28.923Z,14.484096
2018-05-25T00:24:41.397Z,14.484096
2018-05-25T00:24:54.426Z,14.484096
2018-05-25T00:25:06.852Z,9.656064
2018-05-25T00:25:19.263Z,14.484096
2018-05-25T00:25:31.677Z,14.484096
2018-05-25T00:25:44.095Z,14.484096
2018-05-25T00:25:56.512Z,14.484096
2018-05-25T00:26:08.929Z,8.04672
2018-05-25T00:26:21.333Z,11.265408
2018-05-25T00:26:33.742Z,12.874752
2018-05-25T00:26:46.165Z,12.874752
2018-05-25T00:26:58.558Z,12.874752
2018-05-25T00:27:10.973Z,8.04672
2018-05-25T00:27:23.407Z,14.484096
2018-05-25T00:27:35.813Z,14.484096
2018-05-25T00:27:48.383Z,14.484096
2018-05-25T00:28:00.789Z,14.484096
2018-05-25T00:28:13.184Z,12.874752
2018-05-25T00:28:25.592Z,12.874752
2018-05-25T00:28:38.001Z,12.874752
2018-05-25T00:28:50.405Z,14.484096
2018-05-25T00:29:02.815Z,14.484096
2018-05-25T00:29:15.238Z,9.656064
2018-05-25T00:29:27.674Z,9.656064
2018-05-25T00:29:40.084Z,9.656064
2018-05-25T00:29:52.491Z,9.656064
2018-05-25T00:30:04.896Z,6.437376
2018-05-25T00:30:17.303Z,6.437376
2018-05-25T00:30:29.711Z,6.437376
2018-05-25T00:30:42.133Z,8.04672
2018-05-25T00:30:54.553Z,11.265408
2018-05-25T00:31:06.980Z,12.874752
2018-05-25T00:31:19.385Z,12.874752
2018-05-25T00:31:31.794Z,12.874752
2018-05-25T00:31:44.239Z,12.874752
2018-05-25T00:31:56.677Z,12.874752
2018-05-25T00:32:09.081Z,6.437376
2018-05-25T00:32:21.482Z,8.04672
2018-05-25T00:32:33.899Z,11.265408
2018-05-25T00:32:46.358Z,11.265408
2018-05-25T00:32:58.783Z,14.484096
2018-05-25T00:33:11.196Z,9.656064
2018-05-25T00:33:23.674Z,9.656064
2018-05-25T00:33:36.091Z,12.874752
2018-05-25T00:33:48.503Z,14.484096
2018-05-25T00:34:00.913Z,14.484096
2018-05-25T00:34:13.330Z,12.874752
2018-05-25T00:34:25.731Z,14.484096
2018-05-25T00:34:38.139Z,14.484096
2018-05-25T00:34:50.543Z,14.484096
2018-05-25T00:35:02.961Z,14.484096
2018-05-25T00:35:15.373Z,14.484096
2018-05-25T00:35:27.798Z,14.484096
2018-05-25T00:35:40.196Z,14.484096
2018-05-25T00:35:52.607Z,14.484096
2018-05-25T00:36:05.062Z,3.218688
2018-05-25T00:36:17.471Z,8.04672
2018-05-25T00:36:29.878Z,8.04672
2018-05-25T00:36:42.297Z,9.656064
2018-05-25T00:36:54.707Z,9.656064
2018-05-25T00:37:07.099Z,8.04672
2018-05-25T00:37:19.515Z,11.265408
2018-05-25T00:37:31.926Z,11.265408
2018-05-25T00:37:44.392Z,11.265408
2018-05-25T00:37:56.804Z,11.265408
2018-05-25T00:38:09.368Z,8.04672
2018-05-25T00:38:21.780Z,9.656064
2018-05-25T00:38:34.169Z,9.656064
2018-05-25T00:38:46.565Z,9.656064
2018-05-25T00:38:58.952Z,12.874752
2018-05-25T00:39:11.370Z,12.874752
2018-05-25T00:39:23.767Z,14.484096
2018-05-25T00:39:36.162Z,14.484096
2018-05-25T00:39:48.559Z,14.484096
2018-05-25T00:40:00.956Z,14.484096
2018-05-25T00:40:13.373Z,9.656064
2018-05-25T00:40:25.781Z,9.656064
2018-05-25T00:40:38.181Z,9.656064
2018-05-25T00:40:50.600Z,9.656064
2018-05-25T00:41:03.225Z,3.218688
2018-05-25T00:41:15.664Z,3.218688
2018-05-25T00:41:28.105Z,9.656064
2018-05-25T00:41:40.512Z,9.656064
2018-05-25T00:41:52.907Z,9.656064
2018-05-25T00:42:05.319Z,4.828032
2018-05-25T00:42:17.733Z,4.828032
2018-05-25T00:42:30.130Z,4.828032
2018-05-25T00:42:42.552Z,8.04672
2018-05-25T00:42:54.962Z,11.265408
2018-05-25T00:43:07.375Z,8.04672
2018-05-25T00:43:19.781Z,8.04672
2018-05-25T00:43:32.189Z,8.04672
2018-05-25T00:43:44.596Z,8.04672
2018-05-25T00:43:56.994Z,8.04672
2018-05-25T00:44:09.394Z,12.874752
2018-05-25T00:44:21.796Z,12.874752
2018-05-25T00:44:34.187Z,12.874752
2018-05-25T00:44:46.590Z,12.874752
2018-05-25T00:44:58.989Z,12.874752
2018-05-25T00:45:11.397Z,6.437376
2018-05-25T00:45:23.796Z,6.437376
2018-05-25T00:45:36.204Z,6.437376
2018-05-25T00:45:48.622Z,8.04672
2018-05-25T00:46:01.068Z,9.656064
2018-05-25T00:46:13.505Z,6.437376
2018-05-25T00:46:25.908Z,11.265408
2018-05-25T00:46:38.318Z,11.265408
2018-05-25T00:46:50.719Z,11.265408
2018-05-25T00:47:03.108Z,11.265408
2018-05-25T00:47:15.569Z,4.828032
2018-05-25T00:47:27.986Z,6.437376
2018-05-25T00:47:40.400Z,6.437376
2018-05-25T00:47:52.796Z,6.437376
2018-05-25T00:48:05.196Z,1.609344
2018-05-25T00:48:17.606Z,4.828032
2018-05-25T00:48:30.201Z,6.437376
2018-05-25T00:48:42.666Z,9.656064
2018-05-25T00:48:55.074Z,9.656064
2018-05-25T00:49:07.496Z,9.656064
2018-05-25T00:49:19.891Z,11.265408
2018-05-25T00:49:32.644Z,11.265408
2018-05-25T00:49:45.032Z,11.265408
2018-05-25T00:49:57.482Z,11.265408
2018-05-25T00:50:09.895Z,9.656064
2018-05-25T00:50:22.495Z,9.656064
2018-05-25T00:50:35.304Z,9.656064
2018-05-25T00:50:47.708Z,9.656064
2018-05-25T00:51:00.110Z,9.656064
2018-05-25T00:51:12.511Z,11.265408
2018-05-25T00:51:24.922Z,11.265408
2018-05-25T00:51:37.321Z,11.265408
2018-05-25T00:51:49.734Z,11.265408
2018-05-25T00:52:02.180Z,11.265408
2018-05-25T00:52:14.598Z,12.874752
2018-05-25T00:52:27.127Z,12.874752
2018-05-25T00:52:39.521Z,12.874752
2018-05-25T00:52:51.911Z,12.874752
2018-05-25T00:53:04.301Z,6.437376
2018-05-25T00:53:16.732Z,9.656064
2018-05-25T00:53:29.144Z,9.656064
2018-05-25T00:53:41.548Z,9.656064
2018-05-25T00:53:53.959Z,14.484096
2018-05-25T00:54:06.352Z,9.656064
2018-05-25T00:54:18.767Z,11.265408
2018-05-25T00:54:31.174Z,11.265408
2018-05-25T00:54:43.717Z,11.265408
2018-05-25T00:54:56.170Z,11.265408
2018-05-25T00:55:08.620Z,14.484096
2018-05-25T00:55:21.112Z,14.484096
2018-05-25T00:55:33.533Z,14.484096
2018-05-25T00:55:46.001Z,14.484096
2018-05-25T00:55:58.392Z,14.484096
2018-05-25T00:56:10.791Z,9.656064
2018-05-25T00:56:23.181Z,9.656064
2018-05-25T00:56:35.590Z,9.656064
2018-05-25T00:56:48.043Z,11.265408
2018-05-25T00:57:00.440Z,11.265408
2018-05-25T00:57:12.884Z,3.218688
2018-05-25T00:57:25.280Z,9.656064
2018-05-25T00:57:37.684Z,9.656064
2018-05-25T00:57:50.118Z,9.656064
2018-05-25T00:58:02.517Z,12.874752
2018-05-25T00:58:14.941Z,12.874752
2018-05-25T00:58:27.342Z,12.874752
2018-05-25T00:58:39.776Z,12.874752
2018-05-25T00:58:52.171Z,12.874752
2018-05-25T00:59:04.582Z,8.04672
2018-05-25T00:59:16.982Z,8.04672
2018-05-25T00:59:29.424Z,8.04672
2018-05-25T00:59:41.877Z,8.04672
2018-05-25T00:59:54.277Z,8.04672
2018-05-25T01:00:06.676Z,9.656064
2018-05-25T01:00:19.122Z,9.656064
2018-05-25T01:00:31.642Z,11.265408
2018-05-25T01:00:44.141Z,11.265408
2018-05-25T01:00:56.585Z,11.265408
2018-05-25T01:01:09.021Z,6.437376
2018-05-25T01:01:21.449Z,8.04672
2018-05-25T01:01:33.860Z,11.265408
2018-05-25T01:01:46.306Z,14.484096
2018-05-25T01:01:58.875Z,14.484096
2018-05-25T01:02:11.274Z,9.656064
2018-05-25T01:02:23.665Z,9.656064
2018-05-25T01:02:36.065Z,9.656064
2018-05-25T01:02:48.472Z,9.656064
2018-05-25T01:03:00.873Z,9.656064
2018-05-25T01:03:13.312Z,8.04672
2018-05-25T01:03:25.725Z,8.04672
2018-05-25T01:03:38.130Z,8.04672
2018-05-25T01:03:50.528Z,9.656064
2018-05-25T01:04:02.928Z,9.656064
2018-05-25T01:04:15.327Z,3.218688
2018-05-25T01:04:27.789Z,4.828032
2018-05-25T01:04:40.238Z,4.828032
2018-05-25T01:04:52.660Z,6.437376
2018-05-25T01:05:05.076Z,1.609344
2018-05-25T01:05:17.642Z,3.218688
2018-05-25T01:05:30.081Z,6.437376
2018-05-25T01:05:42.475Z,9.656064
2018-05-25T01:05:54.881Z,9.656064
2018-05-25T01:06:07.286Z,8.04672
2018-05-25T01:06:19.742Z,8.04672
2018-05-25T01:06:32.152Z,8.04672
2018-05-25T01:06:44.558Z,8.04672
2018-05-25T01:06:56.957Z,8.04672
2018-05-25T01:07:09.363Z,6.437376
2018-05-25T01:07:21.759Z,8.04672
2018-05-25T01:07:34.160Z,8.04672
2018-05-25T01:07:46.575Z,8.04672
2018-05-25T01:07:58.992Z,8.04672
2018-05-25T01:08:11.392Z,8.04672
2018-05-25T01:08:23.806Z,8.04672
2018-05-25T01:08:36.209Z,8.04672
2018-05-25T01:08:48.616Z,8.04672
2018-05-25T01:09:01.021Z,8.04672
2018-05-25T01:09:13.459Z,12.874752
2018-05-25T01:09:25.864Z,12.874752
2018-05-25T01:09:38.265Z,12.874752
2018-05-25T01:09:50.682Z,12.874752
2018-05-25T01:10:03.094Z,12.874752
2018-05-25T01:10:15.517Z,17.702784
2018-05-25T01:10:27.913Z,17.702784
2018-05-25T01:10:40.328Z,17.702784
2018-05-25T01:10:52.749Z,17.702784
2018-05-25T01:11:05.156Z,8.04672
2018-05-25T01:11:17.572Z,11.265408
2018-05-25T01:11:29.963Z,11.265408
2018-05-25T01:11:42.372Z,11.265408
2018-05-25T01:11:54.792Z,11.265408
2018-05-25T01:12:07.222Z,8.04672
2018-05-25T01:12:19.763Z,8.04672
2018-05-25T01:12:32.170Z,11.265408
2018-05-25T01:12:44.629Z,16.09344
2018-05-25T01:12:57.020Z,16.09344
2018-05-25T01:13:09.435Z,9.656064
2018-05-25T01:13:21.838Z,11.265408
2018-05-25T01:13:34.233Z,11.265408
2018-05-25T01:13:46.626Z,11.265408
2018-05-25T01:13:59.020Z,11.265408
2018-05-25T01:14:11.436Z,3.218688
2018-05-25T01:14:23.851Z,6.437376
2018-05-25T01:14:36.244Z,9.656064
2018-05-25T01:14:48.652Z,9.656064
2018-05-25T01:15:01.058Z,9.656064
2018-05-25T01:15:13.718Z,6.437376
2018-05-25T01:15:26.118Z,6.437376
2018-05-25T01:15:38.516Z,6.437376
2018-05-25T01:15:50.928Z,6.437376
2018-05-25T01:16:03.336Z,6.437376
2018-05-25T01:16:15.762Z,1.609344
2018-05-25T01:16:28.168Z,3.218688
2018-05-25T01:16:40.577Z,3.218688
2018-05-25T01:16:52.980Z,3.218688
2018-05-25T01:17:05.426Z,9.656064
2018-05-25T01:17:17.847Z,11.265408
2018-05-25T01:17:30.234Z,11.265408
2018-05-25T01:17:42.654Z,11.265408
2018-05-25T01:17:55.052Z,11.265408
2018-05-25T01:18:07.784Z,6.437376
2018-05-25T01:18:20.495Z,6.437376
2018-05-25T01:18:32.894Z,6.437376
2018-05-25T01:18:45.299Z,9.656064
2018-05-25T01:18:57.698Z,9.656064
2018-05-25T01:19:10.096Z,6.437376
2018-05-25T01:19:22.506Z,6.437376
2018-05-25T01:19:34.910Z,9.656064
2018-05-25T01:19:47.310Z,12.874752
2018-05-25T01:19:59.726Z,12.874752
2018-05-25T01:20:12.132Z,4.828032
2018-05-25T01:20:24.539Z,8.04672
2018-05-25T01:20:36.941Z,8.04672
2018-05-25T01:20:49.344Z,8.04672
2018-05-25T01:21:01.741Z,12.874752
2018-05-25T01:21:14.141Z,17.702784
2018-05-25T01:21:26.548Z,17.702784
2018-05-25T01:21:38.962Z,17.702784
2018-05-25T01:21:51.373Z,17.702784
2018-05-25T01:22:03.772Z,16.09344
2018-05-25T01:22:16.159Z,20.921472
2018-05-25T01:22:28.571Z,20.921472
2018-05-25T01:22:40.983Z,20.921472
2018-05-25T01:22:53.397Z,20.921472
2018-05-25T01:23:05.874Z,3.218688
2018-05-25T01:23:18.271Z,4.828032
2018-05-25T01:23:30.700Z,4.828032
2018-05-25T01:23:43.110Z,4.828032
2018-05-25T01:23:55.503Z,4.828032
2018-05-25T01:24:07.908Z,1.609344
2018-05-25T01:24:20.332Z,1.609344
2018-05-25T01:24:32.721Z,1.609344
2018-05-25T01:24:45.133Z,1.609344
2018-05-25T01:24:57.523Z,1.609344
2018-05-25T01:25:09.944Z,0
2018-05-25T01:25:22.346Z,0
2018-05-25T01:25:34.748Z,0
2018-05-25T01:25:47.148Z,0
2018-05-25T01:25:59.557Z,0
2018-05-25T01:26:11.954Z,3.218688
2018-05-25T01:26:24.353Z,6.437376
2018-05-25T01:26:36.800Z,6.437376
2018-05-25T01:26:49.207Z,6.437376
2018-05-25T01:27:01.616Z,11.265408
2018-05-25T01:27:14.030Z,8.04672
2018-05-25T01:27:26.448Z,9.656064
2018-05-25T01:27:38.869Z,11.265408
2018-05-25T01:27:51.546Z,11.265408
2018-05-25T01:28:03.939Z,11.265408
2018-05-25T01:28:16.333Z,6.437376
2018-05-25T01:28:28.752Z,8.04672
2018-05-25T01:28:41.160Z,8.04672
2018-05-25T01:28:53.550Z,9.656064
2018-05-25T01:29:05.953Z,11.265408
2018-05-25T01:29:18.378Z,11.265408
2018-05-25T01:29:30.783Z,11.265408
2018-05-25T01:29:43.180Z,11.265408
2018-05-25T01:29:55.574Z,11.265408
2018-05-25T01:30:07.985Z,6.437376
2018-05-25T01:30:20.383Z,6.437376
2018-05-25T01:30:32.791Z,9.656064
2018-05-25T01:30:45.197Z,9.656064
2018-05-25T01:30:57.590Z,9.656064
2018-05-25T01:31:10.004Z,6.437376
2018-05-25T01:31:22.404Z,8.04672
2018-05-25T01:31:34.818Z,8.04672
2018-05-25T01:31:47.218Z,8.04672
2018-05-25T01:31:59.618Z,8.04672
2018-05-25T01:32:12.034Z,3.218688
2018-05-25T01:32:24.452Z,3.218688
2018-05-25T01:32:36.855Z,6.437376
2018-05-25T01:32:49.346Z,6.437376
2018-05-25T01:33:01.745Z,6.437376
2018-05-25T01:33:14.172Z,9.656064
2018-05-25T01:33:26.579Z,9.656064
2018-05-25T01:33:38.982Z,12.874752
2018-05-25T01:33:51.393Z,12.874752
2018-05-25T01:34:03.803Z,12.874752
2018-05-25T01:34:16.225Z,8.04672
2018-05-25T01:34:28.624Z,9.656064
2018-05-25T01:34:41.039Z,9.656064
2018-05-25T01:34:53.444Z,9.656064
2018-05-25T01:35:05.880Z,8.04672
2018-05-25T01:35:18.285Z,11.265408
2018-05-25T01:35:30.694Z,11.265408
2018-05-25T01:35:43.091Z,11.265408
2018-05-25T01:35:55.491Z,11.265408
2018-05-25T01:36:07.893Z,6.437376
2018-05-25T01:36:20.291Z,9.656064
2018-05-25T01:36:32.688Z,9.656064
2018-05-25T01:36:45.096Z,9.656064
2018-05-25T01:36:57.504Z,9.656064
2018-05-25T01:37:09.896Z,3.218688
2018-05-25T01:37:22.292Z,3.218688
2018-05-25T01:37:34.713Z,3.218688
2018-05-25T01:37:47.151Z,6.437376
2018-05-25T01:37:59.547Z,6.437376
2018-05-25T01:38:12.125Z,3.218688
2018-05-25T01:38:24.568Z,3.218688
2018-05-25T01:38:37.105Z,3.218688
2018-05-25T01:38:49.499Z,6.437376
2018-05-25T01:39:01.902Z,9.656064
2018-05-25T01:39:14.305Z,9.656064
2018-05-25T01:39:26.713Z,9.656064
2018-05-25T01:39:39.125Z,9.656064
2018-05-25T01:39:51.528Z,9.656064
2018-05-25T01:40:03.958Z,12.874752
2018-05-25T01:40:16.356Z,11.265408
2018-05-25T01:40:28.747Z,11.265408
2018-05-25T01:40:41.145Z,14.484096
2018-05-25T01:40:53.555Z,14.484096
2018-05-25T01:41:06.050Z,4.828032
2018-05-25T01:41:18.451Z,6.437376
2018-05-25T01:41:30.854Z,6.437376
2018-05-25T01:41:43.259Z,6.437376
2018-05-25T01:41:55.707Z,12.874752
2018-05-25T01:42:08.113Z,11.265408
2018-05-25T01:42:20.528Z,11.265408
2018-05-25T01:42:32.919Z,11.265408
2018-05-25T01:42:45.321Z,11.265408
2018-05-25T01:42:57.746Z,11.265408
2018-05-25T01:43:10.176Z,9.656064
2018-05-25T01:43:22.582Z,9.656064
2018-05-25T01:43:34.981Z,9.656064
2018-05-25T01:43:47.392Z,9.656064
2018-05-25T01:43:59.789Z,9.656064
2018-05-25T01:44:12.202Z,4.828032
2018-05-25T01:44:24.598Z,4.828032
2018-05-25T01:44:37.004Z,11.265408
2018-05-25T01:44:49.422Z,11.265408
2018-05-25T01:45:01.869Z,11.265408
2018-05-25T01:45:14.295Z,3.218688
2018-05-25T01:45:26.709Z,3.218688
2018-05-25T01:45:39.145Z,11.265408
2018-05-25T01:45:51.567Z,11.265408
2018-05-25T01:46:03.987Z,6.437376
2018-05-25T01:46:16.379Z,9.656064
2018-05-25T01:46:28.861Z,11.265408
2018-05-25T01:46:41.289Z,12.874752
2018-05-25T01:46:53.718Z,14.484096
2018-05-25T01:47:06.142Z,11.265408
2018-05-25T01:47:18.538Z,11.265408
2018-05-25T01:47:30.958Z,11.265408
2018-05-25T01:47:43.362Z,12.874752
2018-05-25T01:47:55.775Z,14.484096
2018-05-25T01:48:08.178Z,8.04672
2018-05-25T01:48:20.764Z,8.04672
2018-05-25T01:48:33.184Z,8.04672
2018-05-25T01:48:45.592Z,14.484096
2018-05-25T01:48:57.996Z,14.484096
2018-05-25T01:49:10.401Z,6.437376
2018-05-25T01:49:22.851Z,9.656064
2018-05-25T01:49:35.307Z,9.656064
2018-05-25T01:49:47.707Z,9.656064
2018-05-25T01:50:00.111Z,9.656064
2018-05-25T01:50:12.523Z,11.265408
2018-05-25T01:50:24.990Z,11.265408
2018-05-25T01:50:37.399Z,11.265408
2018-05-25T01:50:49.811Z,11.265408
2018-05-25T01:51:02.225Z,11.265408
2018-05-25T01:51:14.682Z,8.04672
2018-05-25T01:51:27.085Z,8.04672
2018-05-25T01:51:39.491Z,12.874752
2018-05-25T01:51:51.949Z,12.874752
2018-05-25T01:52:04.347Z,12.874752
2018-05-25T01:52:16.899Z,11.265408
2018-05-25T01:52:29.311Z,11.265408
2018-05-25T01:52:41.727Z,11.265408
2018-05-25T01:52:54.130Z,11.265408
2018-05-25T01:53:06.534Z,8.04672
2018-05-25T01:53:18.922Z,11.265408
2018-05-25T01:53:31.340Z,11.265408
2018-05-25T01:53:43.749Z,11.265408
2018-05-25T01:53:56.148Z,11.265408
2018-05-25T01:54:08.570Z,3.218688
2018-05-25T01:54:21.026Z,9.656064
2018-05-25T01:54:33.440Z,11.265408
2018-05-25T01:54:45.849Z,11.265408
2018-05-25T01:54:58.249Z,11.265408
2018-05-25T01:55:10.710Z,12.874752
2018-05-25T01:55:23.376Z,12.874752
2018-05-25T01:55:35.778Z,12.874752
2018-05-25T01:55:48.187Z,12.874752
2018-05-25T01:56:00.600Z,12.874752
2018-05-25T01:56:12.989Z,9.656064
2018-05-25T01:56:25.377Z,9.656064
2018-05-25T01:56:37.781Z,9.656064
2018-05-25T01:56:50.180Z,9.656064
2018-05-25T01:57:02.591Z,9.656064
2018-05-25T01:57:15.001Z,9.656064
2018-05-25T01:57:27.424Z,11.265408
2018-05-25T01:57:39.838Z,11.265408
2018-05-25T01:57:52.236Z,11.265408
2018-05-25T01:58:04.644Z,1.609344
2018-05-25T01:58:17.059Z,3.218688
2018-05-25T01:58:29.446Z,11.265408
2018-05-25T01:58:41.910Z,11.265408
2018-05-25T01:58:54.318Z,11.265408
2018-05-25T01:59:06.732Z,1.609344
2018-05-25T01:59:19.150Z,3.218688
2018-05-25T01:59:31.591Z,9.656064
2018-05-25T01:59:44.001Z,9.656064
2018-05-25T01:59:56.393Z,9.656064
2018-05-25T02:00:08.814Z,9.656064
2018-05-25T02:00:21.256Z,9.656064
2018-05-25T02:00:33.753Z,9.656064
2018-05-25T02:00:46.191Z,9.656064
2018-05-25T02:00:58.625Z,9.656064
2018-05-25T02:01:11.152Z,6.437376
2018-05-25T02:01:23.580Z,6.437376
2018-05-25T02:01:35.976Z,11.265408
2018-05-25T02:01:48.378Z,12.874752
2018-05-25T02:02:00.922Z,12.874752
2018-05-25T02:02:13.316Z,8.04672
2018-05-25T02:02:25.715Z,9.656064
2018-05-25T02:02:38.128Z,9.656064
2018-05-25T02:02:50.539Z,9.656064
2018-05-25T02:03:02.963Z,9.656064
2018-05-25T02:03:15.354Z,3.218688
2018-05-25T02:03:27.770Z,9.656064
2018-05-25T02:03:40.183Z,9.656064
2018-05-25T02:03:52.581Z,11.265408
2018-05-25T02:04:04.982Z,6.437376
2018-05-25T02:04:17.407Z,9.656064
2018-05-25T02:04:29.807Z,9.656064
2018-05-25T02:04:42.204Z,9.656064
2018-05-25T02:04:54.603Z,9.656064
2018-05-25T02:05:07.179Z,1.609344
2018-05-25T02:05:19.588Z,3.218688
2018-05-25T02:05:32.039Z,3.218688
2018-05-25T02:05:44.423Z,11.265408
2018-05-25T02:05:56.815Z,11.265408
2018-05-25T02:06:09.215Z,9.656064
2018-05-25T02:06:21.626Z,9.656064
2018-05-25T02:06:34.022Z,9.656064
2018-05-25T02:06:46.421Z,9.656064
2018-05-25T02:06:58.827Z,12.874752
2018-05-25T02:07:11.228Z,11.265408
2018-05-25T02:07:23.626Z,11.265408
2018-05-25T02:07:36.068Z,11.265408
2018-05-25T02:07:48.471Z,11.265408
2018-05-25T02:08:00.881Z,11.265408
2018-05-25T02:08:13.289Z,4.828032
2018-05-25T02:08:25.746Z,6.437376
2018-05-25T02:08:38.165Z,8.04672
2018-05-25T02:08:50.610Z,8.04672
2018-05-25T02:09:03.013Z,9.656064
2018-05-25T02:09:15.437Z,8.04672
2018-05-25T02:09:27.914Z,11.265408
2018-05-25T02:09:40.332Z,12.874752
2018-05-25T02:09:52.755Z,12.874752
2018-05-25T02:10:05.221Z,6.437376
2018-05-25T02:10:17.666Z,9.656064
2018-05-25T02:10:30.134Z,9.656064
2018-05-25T02:10:42.537Z,9.656064
2018-05-25T02:10:54.953Z,9.656064
2018-05-25T02:11:07.411Z,6.437376
2018-05-25T02:11:20.255Z,6.437376
2018-05-25T02:11:32.663Z,6.437376
2018-05-25T02:11:45.058Z,6.437376
2018-05-25T02:11:57.459Z,6.437376
2018-05-25T02:12:09.933Z,0
2018-05-25T02:12:22.332Z,1.609344
2018-05-25T02:12:34.747Z,4.828032
2018-05-25T02:12:47.161Z,9.656064
2018-05-25T02:12:59.571Z,9.656064
2018-05-25T02:13:11.986Z,6.437376
2018-05-25T02:13:24.401Z,6.437376
2018-05-25T02:13:36.810Z,6.437376
2018-05-25T02:13:49.209Z,6.437376
2018-05-25T02:14:01.609Z,6.437376
2018-05-25T02:14:14.034Z,11.265408
2018-05-25T02:14:26.436Z,14.484096
2018-05-25T02:14:38.840Z,14.484096
2018-05-25T02:14:51.237Z,14.484096
2018-05-25T02:15:03.657Z,14.484096
2018-05-25T02:15:16.124Z,9.656064
2018-05-25T02:15:28.531Z,9.656064
2018-05-25T02:15:40.948Z,9.656064
2018-05-25T02:15:53.404Z,9.656064
2018-05-25T02:16:05.809Z,11.265408
2018-05-25T02:16:18.237Z,11.265408
2018-05-25T02:16:30.633Z,11.265408
2018-05-25T02:16:43.029Z,11.265408
2018-05-25T02:16:55.421Z,11.265408
2018-05-25T02:17:07.844Z,6.437376
2018-05-25T02:17:20.263Z,6.437376
2018-05-25T02:17:32.675Z,8.04672
2018-05-25T02:17:45.079Z,8.04672
2018-05-25T02:17:57.477Z,8.04672
2018-05-25T02:18:10.247Z,3.218688
2018-05-25T02:18:22.879Z,6.437376
2018-05-25T02:18:35.370Z,8.04672
2018-05-25T02:18:47.769Z,8.04672
2018-05-25T02:19:00.188Z,9.656064
2018-05-25T02:19:12.606Z,6.437376
2018-05-25T02:19:25.000Z,8.04672
2018-05-25T02:19:37.397Z,8.04672
2018-05-25T02:19:49.822Z,8.04672
2018-05-25T02:20:02.220Z,8.04672
2018-05-25T02:20:14.611Z,6.437376
2018-05-25T02:20:27.022Z,6.437376
2018-05-25T02:20:39.416Z,8.04672
2018-05-25T02:20:51.818Z,8.04672
2018-05-25T02:21:04.220Z,8.04672
2018-05-25T02:21:16.631Z,3.218688
2018-05-25T02:21:29.034Z,8.04672
2018-05-25T02:21:41.427Z,11.265408
2018-05-25T02:21:53.833Z,11.265408
2018-05-25T02:22:06.264Z,14.484096
2018-05-25T02:22:18.676Z,14.484096
2018-05-25T02:22:31.094Z,14.484096
2018-05-25T02:22:43.549Z,14.484096
2018-05-25T02:22:55.961Z,14.484096
2018-05-25T02:23:08.366Z,1.609344
2018-05-25T02:23:20.837Z,4.828032
2018-05-25T02:23:33.248Z,6.437376
2018-05-25T02:23:45.642Z,8.04672
2018-05-25T02:23:58.056Z,9.656064
2018-05-25T02:24:10.460Z,9.656064
2018-05-25T02:24:22.916Z,9.656064
2018-05-25T02:24:35.342Z,9.656064
2018-05-25T02:24:47.745Z,9.656064
2018-05-25T02:25:00.168Z,9.656064